createdAt,value
2023-04-24T00:01:59.799Z,100.00
2023-04-24T00:04:27.458Z,100.00
2023-04-24T00:06:58.596Z,100.00
2023-04-24T00:09:25.524Z,100.00
2023-04-24T00:11:52.430Z,100.00
2023-04-24T00:14:19.330Z,100.00
2023-04-24T00:16:46.267Z,100.00
2023-04-24T00:19:14.103Z,100.00
2023-04-24T00:21:42.263Z,100.00
2023-04-24T00:24:10.395Z,100.00
2023-04-24T00:26:37.199Z,100.00
2023-04-24T00:29:03.987Z,100.00
2023-04-24T00:31:30.885Z,100.00
2023-04-24T00:33:57.692Z,100.00
2023-04-24T00:36:24.475Z,100.00
2023-04-24T00:38:51.294Z,100.00
2023-04-24T00:41:18.214Z,100.00
2023-04-24T00:43:44.967Z,99.97
2023-04-24T00:46:12.368Z,100.00
2023-04-24T00:48:40.705Z,100.00
2023-04-24T00:51:07.969Z,100.00
2023-04-24T00:53:34.847Z,100.00
2023-04-24T00:56:01.789Z,100.00
2023-04-24T00:58:28.868Z,100.00
2023-04-24T01:00:56.607Z,100.00
2023-04-24T01:03:24.101Z,100.00
2023-04-24T01:05:51.345Z,100.00
2023-04-24T01:08:18.211Z,100.00
2023-04-24T01:10:45.374Z,100.00
2023-04-24T01:13:12.441Z,100.00
2023-04-24T01:15:39.419Z,100.00
2023-04-24T01:18:29.007Z,100.00
2023-04-24T01:20:59.843Z,100.00
2023-04-24T01:23:29.113Z,100.00
2023-04-24T01:25:56.019Z,100.00
2023-04-24T01:28:23.351Z,100.00
2023-04-24T01:30:50.306Z,100.00
2023-04-24T01:33:17.114Z,100.00
2023-04-24T01:35:44.223Z,100.00
2023-04-24T01:38:11.178Z,100.00
2023-04-24T01:40:37.944Z,100.00
2023-04-24T01:43:05.668Z,100.00
2023-04-24T01:45:32.962Z,100.00
2023-04-24T01:48:00.235Z,100.00
2023-04-24T01:50:27.475Z,100.00
2023-04-24T01:52:54.212Z,100.00
2023-04-24T01:55:20.995Z,100.00
2023-04-24T01:57:47.992Z,100.00
2023-04-24T02:00:15.709Z,100.00
2023-04-24T02:02:45.622Z,100.00
2023-04-24T02:05:14.314Z,100.00
2023-04-24T02:07:41.279Z,100.00
2023-04-24T02:10:08.643Z,100.00
2023-04-24T02:12:35.745Z,100.00
2023-04-24T02:15:02.598Z,100.00
2023-04-24T02:17:29.549Z,100.00
2023-04-24T02:19:56.418Z,100.00
2023-04-24T02:22:23.316Z,100.00
2023-04-24T02:24:50.330Z,100.00
2023-04-24T02:27:17.629Z,100.00
2023-04-24T02:29:44.729Z,100.00
2023-04-24T02:32:13.436Z,100.00
2023-04-24T02:34:40.404Z,100.00
2023-04-24T02:37:07.203Z,100.00
2023-04-24T02:39:34.203Z,100.00
2023-04-24T02:42:01.564Z,100.00
2023-04-24T02:44:28.249Z,100.00
2023-04-24T02:46:54.937Z,100.00
2023-04-24T02:49:21.688Z,100.00
2023-04-24T02:51:48.440Z,100.00
2023-04-24T02:54:15.771Z,100.00
2023-04-24T02:56:42.510Z,100.00
2023-04-24T02:59:09.245Z,100.00
2023-04-24T03:01:36.735Z,100.00
2023-04-24T03:04:03.978Z,100.00
2023-04-24T03:06:32.598Z,100.00
2023-04-24T03:08:59.466Z,100.00
2023-04-24T03:11:26.538Z,100.00
2023-04-24T03:13:53.726Z,100.00
2023-04-24T03:16:20.667Z,100.00
2023-04-24T03:18:47.586Z,100.00
2023-04-24T03:21:14.354Z,100.00
2023-04-24T03:23:41.051Z,99.89
2023-04-24T03:26:07.971Z,99.48
2023-04-24T03:28:34.846Z,99.51
2023-04-24T03:31:01.672Z,99.71
2023-04-24T03:33:28.543Z,99.82
2023-04-24T03:35:55.809Z,99.55
2023-04-24T03:38:22.592Z,99.75
2023-04-24T03:40:49.431Z,99.55
2023-04-24T03:43:16.272Z,99.67
2023-04-24T03:45:43.146Z,99.39
2023-04-24T03:48:10.160Z,99.41
2023-04-24T03:50:37.066Z,99.69
2023-04-24T03:53:04.097Z,100.00
2023-04-24T03:55:31.068Z,100.00
2023-04-24T03:57:57.780Z,99.22
2023-04-24T04:00:24.589Z,99.23
2023-04-24T04:02:51.774Z,99.38
2023-04-24T04:05:18.667Z,99.79
2023-04-24T04:07:45.784Z,99.88
2023-04-24T04:10:12.640Z,99.23
2023-04-24T04:12:39.631Z,99.21
2023-04-24T04:15:08.118Z,99.30
2023-04-24T04:17:35.096Z,99.26
2023-04-24T04:20:02.363Z,98.82
2023-04-24T04:22:29.171Z,98.63
2023-04-24T04:24:56.220Z,98.10
2023-04-24T04:27:23.422Z,98.81
2023-04-24T04:29:50.350Z,98.27
2023-04-24T04:32:17.727Z,98.48
2023-04-24T04:34:46.885Z,99.39
2023-04-24T04:37:14.130Z,99.60
2023-04-24T04:39:41.475Z,99.31
2023-04-24T04:42:08.453Z,99.35
2023-04-24T04:44:37.457Z,98.97
2023-04-24T04:47:07.935Z,99.50
2023-04-24T04:49:35.915Z,99.80
2023-04-24T04:52:02.848Z,99.79
2023-04-24T04:54:29.864Z,100.00
2023-04-24T04:56:57.277Z,100.00
2023-04-24T04:59:24.290Z,100.00
2023-04-24T05:01:52.053Z,100.00
2023-04-24T05:04:19.941Z,100.00
2023-04-24T05:06:48.453Z,100.00
2023-04-24T05:09:16.467Z,100.00
2023-04-24T05:11:43.404Z,100.00
2023-04-24T05:14:12.717Z,100.00
2023-04-24T05:16:42.333Z,100.00
2023-04-24T05:19:10.907Z,99.96
2023-04-24T05:21:38.989Z,99.03
2023-04-24T05:24:06.226Z,98.00
2023-04-24T05:26:33.238Z,96.88
2023-04-24T05:29:00.350Z,96.14
2023-04-24T05:31:27.442Z,95.55
2023-04-24T05:33:54.672Z,95.39
2023-04-24T05:36:22.058Z,94.35
2023-04-24T05:38:53.554Z,94.23
2023-04-24T05:41:24.188Z,92.54
2023-04-24T05:43:53.110Z,92.16
2023-04-24T05:46:22.880Z,92.10
2023-04-24T05:48:49.830Z,92.17
2023-04-24T05:51:16.723Z,91.61
2023-04-24T05:53:45.468Z,89.28
2023-04-24T05:56:14.317Z,88.52
2023-04-24T05:58:43.505Z,87.46
2023-04-24T06:01:11.052Z,85.70
2023-04-24T06:03:38.173Z,86.79
2023-04-24T06:06:05.333Z,86.70
2023-04-24T06:08:32.107Z,86.90
2023-04-24T06:10:59.225Z,87.33
2023-04-24T06:13:26.430Z,86.26
2023-04-24T06:15:54.422Z,86.93
2023-04-24T06:18:21.162Z,85.24
2023-04-24T06:20:49.245Z,85.73
2023-04-24T06:23:16.570Z,83.26
2023-04-24T06:25:43.858Z,82.99
2023-04-24T06:28:11.834Z,82.76
2023-04-24T06:30:38.934Z,81.29
2023-04-24T06:33:19.494Z,81.99
2023-04-24T06:35:47.674Z,81.53
2023-04-24T06:38:14.866Z,80.64
2023-04-24T06:40:44.996Z,78.11
2023-04-24T06:43:12.581Z,75.97
2023-04-24T06:45:41.254Z,76.71
2023-04-24T06:48:08.262Z,77.46
2023-04-24T06:50:36.232Z,76.25
2023-04-24T06:53:03.060Z,74.38
2023-04-24T06:55:30.097Z,75.46
2023-04-24T06:57:57.409Z,76.52
2023-04-24T07:00:26.103Z,75.17
2023-04-24T07:02:54.161Z,74.58
2023-04-24T07:05:21.489Z,75.84
2023-04-24T07:07:48.872Z,73.39
2023-04-24T07:10:16.127Z,74.64
2023-04-24T07:12:43.208Z,75.22
2023-04-24T07:15:11.083Z,74.60
2023-04-24T07:17:39.846Z,75.46
2023-04-24T07:20:09.328Z,75.37
2023-04-24T07:22:36.206Z,74.34
2023-04-24T07:25:03.891Z,73.31
2023-04-24T07:27:30.996Z,72.13
2023-04-24T07:29:57.833Z,72.65
2023-04-24T07:32:25.016Z,70.91
2023-04-24T07:34:51.861Z,69.68
2023-04-24T07:37:18.883Z,68.18
2023-04-24T07:39:46.777Z,68.35
2023-04-24T07:42:13.757Z,68.07
2023-04-24T07:44:40.954Z,67.24
2023-04-24T07:47:07.902Z,66.93
2023-04-24T07:49:36.377Z,65.40
2023-04-24T07:52:03.821Z,66.10
2023-04-24T07:54:31.163Z,64.69
2023-04-24T07:56:58.179Z,65.05
2023-04-24T07:59:25.874Z,65.05
2023-04-24T08:01:52.599Z,63.68
2023-04-24T08:04:20.037Z,63.50
2023-04-24T08:06:50.042Z,63.31
2023-04-24T08:09:16.927Z,64.38
2023-04-24T08:11:45.035Z,64.57
2023-04-24T08:14:13.828Z,64.11
2023-04-24T08:16:40.659Z,63.95
2023-04-24T08:19:07.849Z,63.55
2023-04-24T08:21:35.447Z,62.00
2023-04-24T08:24:06.583Z,60.68
2023-04-24T08:26:33.747Z,59.32
2023-04-24T08:29:00.628Z,59.83
2023-04-24T08:31:28.070Z,59.85
2023-04-24T08:33:55.542Z,59.53
2023-04-24T08:36:23.827Z,58.85
2023-04-24T08:38:54.195Z,57.75
2023-04-24T08:41:21.280Z,57.21
2023-04-24T08:43:48.276Z,58.34
2023-04-24T08:46:17.947Z,60.77
2023-04-24T08:48:44.986Z,59.49
2023-04-24T08:51:12.199Z,58.03
2023-04-24T08:53:39.327Z,57.04
2023-04-24T08:56:06.565Z,58.09
2023-04-24T08:58:33.655Z,58.35
2023-04-24T09:01:00.845Z,58.01
2023-04-24T09:03:29.810Z,57.47
2023-04-24T09:05:57.269Z,57.69
2023-04-24T09:08:26.920Z,58.89
2023-04-24T09:10:54.180Z,57.78
2023-04-24T09:13:22.189Z,57.84
2023-04-24T09:15:48.997Z,58.34
2023-04-24T09:18:15.965Z,59.00
2023-04-24T09:21:04.210Z,58.74
2023-04-24T09:23:32.734Z,58.86
2023-04-24T09:26:06.326Z,59.03
2023-04-24T09:28:36.385Z,59.29
2023-04-24T09:31:12.743Z,58.76
2023-04-24T09:33:39.800Z,60.05
2023-04-24T09:36:07.669Z,60.65
2023-04-24T09:38:36.952Z,60.13
2023-04-24T09:41:07.573Z,60.81
2023-04-24T09:43:35.786Z,61.61
2023-04-24T09:46:11.199Z,61.31
2023-04-24T09:48:39.009Z,61.36
2023-04-24T09:51:12.526Z,60.78
2023-04-24T09:53:47.429Z,60.80
2023-04-24T09:56:14.817Z,62.21
2023-04-24T09:58:41.862Z,62.11
2023-04-24T10:01:09.391Z,63.63
2023-04-24T10:03:38.019Z,63.59
2023-04-24T10:06:10.455Z,63.05
2023-04-24T10:08:38.944Z,63.94
2023-04-24T10:11:07.001Z,62.88
2023-04-24T10:13:34.525Z,62.73
2023-04-24T10:16:02.775Z,61.53
2023-04-24T10:18:30.256Z,61.82
2023-04-24T10:20:57.901Z,61.27
2023-04-24T10:23:26.749Z,61.62
2023-04-24T10:25:53.886Z,61.03
2023-04-24T10:28:22.185Z,61.02
2023-04-24T10:30:49.169Z,60.07
2023-04-24T10:33:17.967Z,59.62
2023-04-24T10:35:49.143Z,60.57
2023-04-24T10:38:19.744Z,60.62
2023-04-24T10:40:46.630Z,61.08
2023-04-24T10:43:18.987Z,60.33
2023-04-24T10:46:06.201Z,60.57
2023-04-24T10:48:33.886Z,60.89
2023-04-24T10:51:01.395Z,61.03
2023-04-24T10:53:30.707Z,61.91
2023-04-24T10:56:05.848Z,62.03
2023-04-24T10:59:00.391Z,61.78
2023-04-24T11:01:29.552Z,62.73
2023-04-24T11:04:04.682Z,62.76
2023-04-24T11:06:33.350Z,62.66
2023-04-24T11:09:08.827Z,61.10
2023-04-24T11:11:38.933Z,61.79
2023-04-24T11:14:08.034Z,60.98
2023-04-24T11:16:54.685Z,61.01
2023-04-24T11:19:23.502Z,60.47
2023-04-24T11:22:04.191Z,60.20
2023-04-24T11:24:42.063Z,60.97
2023-04-24T11:27:21.155Z,65.67
2023-04-24T11:29:50.494Z,72.85
2023-04-24T11:32:51.088Z,80.07
2023-04-24T11:35:22.772Z,82.58
2023-04-24T11:40:24.361Z,87.79
2023-04-24T11:42:52.621Z,84.44
2023-04-24T11:45:22.558Z,83.15
2023-04-24T11:47:49.837Z,82.18
2023-04-24T11:50:18.705Z,78.70
2023-04-24T11:52:47.791Z,78.56
2023-04-24T11:55:32.771Z,77.23
2023-04-24T11:58:01.387Z,75.25
2023-04-24T12:00:30.150Z,76.39
2023-04-24T12:03:10.186Z,74.89
2023-04-24T12:05:37.934Z,74.36
2023-04-24T12:08:06.400Z,74.51
2023-04-24T12:10:34.659Z,74.25
2023-04-24T12:13:02.099Z,76.75
2023-04-24T12:15:29.357Z,80.11
2023-04-24T12:17:57.678Z,83.38
2023-04-24T12:20:29.887Z,77.37
2023-04-24T12:22:58.452Z,75.20
2023-04-24T12:25:34.934Z,75.36
2023-04-24T12:28:05.063Z,77.15
2023-04-24T12:30:34.627Z,75.09
2023-04-24T12:33:02.171Z,72.43
2023-04-24T12:35:30.413Z,68.65
2023-04-24T12:37:57.269Z,67.94
2023-04-24T12:40:27.240Z,68.96
2023-04-24T12:42:55.242Z,68.61
2023-04-24T12:45:25.218Z,67.33
2023-04-24T12:47:52.149Z,67.36
2023-04-24T12:50:19.160Z,67.41
2023-04-24T12:52:46.563Z,67.58
2023-04-24T12:55:13.576Z,67.25
2023-04-24T12:57:41.369Z,66.65
2023-04-24T13:00:09.610Z,66.91
2023-04-24T13:02:36.830Z,67.34
2023-04-24T13:05:04.329Z,67.06
2023-04-24T13:07:31.291Z,66.72
2023-04-24T13:09:59.379Z,66.58
2023-04-24T13:12:26.874Z,66.57
2023-04-24T13:14:54.830Z,66.71
2023-04-24T13:17:22.043Z,67.74
2023-04-24T13:19:51.486Z,67.15
2023-04-24T13:22:20.125Z,68.07
2023-04-24T13:24:47.167Z,68.02
2023-04-24T13:27:14.009Z,68.83
2023-04-24T13:29:40.875Z,69.37
2023-04-24T13:32:07.997Z,69.86
2023-04-24T13:34:35.947Z,70.48
2023-04-24T13:37:05.431Z,71.61
2023-04-24T13:39:33.263Z,69.93
2023-04-24T13:42:01.958Z,70.25
2023-04-24T13:44:30.046Z,70.33
2023-04-24T13:46:58.636Z,69.34
2023-04-24T13:49:26.821Z,67.88
2023-04-24T13:51:54.940Z,68.85
2023-04-24T13:54:22.178Z,68.70
2023-04-24T13:56:48.994Z,69.33
2023-04-24T13:59:16.155Z,68.37
2023-04-24T14:01:43.524Z,68.07
2023-04-24T14:04:10.488Z,68.24
2023-04-24T14:06:37.473Z,66.50
2023-04-24T14:09:05.772Z,67.75
2023-04-24T14:11:32.712Z,67.55
2023-04-24T14:13:59.545Z,67.22
2023-04-24T14:16:26.400Z,67.36
2023-04-24T14:18:53.428Z,66.37
2023-04-24T14:21:20.382Z,66.51
2023-04-24T14:23:47.494Z,66.66
2023-04-24T14:26:15.089Z,67.99
2023-04-24T14:28:44.005Z,67.15
2023-04-24T14:31:12.892Z,67.69
2023-04-24T14:33:39.689Z,67.32
2023-04-24T14:36:06.977Z,67.27
2023-04-24T14:38:34.024Z,67.24
2023-04-24T14:43:31.770Z,66.13
2023-04-24T14:45:58.995Z,68.40
2023-04-24T14:48:26.138Z,68.46
2023-04-24T14:50:52.915Z,69.16
2023-04-24T14:53:20.109Z,69.37
2023-04-24T14:55:47.064Z,68.41
2023-04-24T14:58:14.158Z,69.47
2023-04-24T15:00:41.236Z,68.22
2023-04-24T15:03:08.810Z,68.89
2023-04-24T15:05:37.552Z,68.76
2023-04-24T15:08:05.174Z,68.85
2023-04-24T15:10:32.069Z,68.88
2023-04-24T15:12:59.542Z,68.29
2023-04-24T15:15:26.764Z,69.06
2023-04-24T15:17:54.137Z,69.46
2023-04-24T15:20:21.685Z,69.11
2023-04-24T15:22:48.443Z,70.21
2023-04-24T15:25:15.523Z,70.80
2023-04-24T15:27:47.179Z,71.94
2023-04-24T15:30:14.865Z,71.09
2023-04-24T15:32:41.863Z,70.74
2023-04-24T15:35:10.600Z,72.29
2023-04-24T15:37:39.035Z,73.51
2023-04-24T15:40:08.523Z,74.43
2023-04-24T15:42:36.398Z,74.96
2023-04-24T15:45:04.704Z,73.95
2023-04-24T15:47:32.076Z,73.55
2023-04-24T15:49:59.034Z,73.26
2023-04-24T15:52:26.145Z,70.37
2023-04-24T15:54:53.259Z,69.59
2023-04-24T15:57:20.701Z,70.20
2023-04-24T15:59:47.783Z,69.57
2023-04-24T16:02:19.686Z,69.19
2023-04-24T16:04:51.442Z,67.83
2023-04-24T16:07:18.589Z,68.84
2023-04-24T16:09:46.069Z,68.86
2023-04-24T16:12:13.017Z,69.07
2023-04-24T16:14:39.961Z,68.02
2023-04-24T16:17:06.920Z,67.92
2023-04-24T16:19:35.223Z,66.78
2023-04-24T16:22:03.431Z,64.96
2023-04-24T16:24:30.734Z,65.87
2023-04-24T16:26:58.031Z,66.54
2023-04-24T16:29:24.919Z,67.10
2023-04-24T16:31:52.261Z,65.06
2023-04-24T16:34:19.466Z,65.27
2023-04-24T16:36:46.508Z,64.45
2023-04-24T16:39:13.703Z,64.59
2023-04-24T16:41:41.127Z,65.17
2023-04-24T16:44:08.179Z,64.80
2023-04-24T16:46:35.220Z,65.80
2023-04-24T16:49:02.069Z,66.28
2023-04-24T16:51:29.293Z,67.71
2023-04-24T16:53:56.304Z,67.54
2023-04-24T16:56:23.318Z,65.60
2023-04-24T16:58:51.231Z,66.13
2023-04-24T17:01:18.255Z,65.60
2023-04-24T17:03:45.465Z,66.33
2023-04-24T17:06:12.951Z,66.30
2023-04-24T17:08:39.831Z,65.90
2023-04-24T17:11:06.892Z,66.79
2023-04-24T17:13:33.701Z,66.35
2023-04-24T17:16:00.715Z,66.91
2023-04-24T17:18:27.644Z,67.37
2023-04-24T17:20:54.460Z,69.08
2023-04-24T17:23:21.468Z,69.40
2023-04-24T17:25:48.203Z,71.49
2023-04-24T17:28:24.674Z,72.99
2023-04-24T17:30:51.907Z,75.52
2023-04-24T17:33:18.620Z,75.73
2023-04-24T17:35:45.463Z,76.40
2023-04-24T17:38:12.578Z,76.15
2023-04-24T17:40:39.745Z,76.40
2023-04-24T17:43:06.575Z,76.54
2023-04-24T17:45:33.681Z,75.70
2023-04-24T17:48:00.730Z,75.41
2023-04-24T17:50:27.995Z,75.18
2023-04-24T17:52:54.887Z,75.42
2023-04-24T17:55:21.876Z,74.35
2023-04-24T17:57:48.834Z,74.46
2023-04-24T18:00:16.509Z,74.66
2023-04-24T18:02:43.461Z,74.17
2023-04-24T18:05:10.436Z,75.26
2023-04-24T18:07:37.491Z,74.65
2023-04-24T18:10:04.522Z,74.91
2023-04-24T18:12:31.605Z,75.52
2023-04-24T18:15:13.046Z,76.18
2023-04-24T18:17:41.332Z,75.69
2023-04-24T18:20:08.875Z,75.78
2023-04-24T18:22:35.694Z,76.14
2023-04-24T18:25:02.750Z,76.06
2023-04-24T18:27:31.432Z,76.44
2023-04-24T18:29:59.647Z,75.94
2023-04-24T18:32:27.526Z,76.05
2023-04-24T18:34:54.459Z,76.61
2023-04-24T18:37:21.721Z,77.32
2023-04-24T18:39:51.063Z,77.58
2023-04-24T18:42:18.775Z,77.73
2023-04-24T18:44:45.740Z,78.69
2023-04-24T18:47:13.017Z,78.71
2023-04-24T18:49:39.897Z,79.42
2023-04-24T18:52:06.722Z,79.71
2023-04-24T18:54:33.677Z,79.69
2023-04-24T18:57:01.979Z,80.11
2023-04-24T18:59:28.756Z,79.71
2023-04-24T19:01:55.644Z,79.89
2023-04-24T19:04:22.655Z,80.75
2023-04-24T19:06:49.785Z,81.24
2023-04-24T19:09:16.867Z,81.53
2023-04-24T19:11:45.035Z,81.71
2023-04-24T19:14:12.161Z,82.19
2023-04-24T19:16:39.411Z,82.30
2023-04-24T19:19:06.277Z,82.41
2023-04-24T19:21:33.708Z,81.61
2023-04-24T19:24:00.685Z,82.49
2023-04-24T19:26:28.658Z,82.83
2023-04-24T19:28:58.296Z,83.31
2023-04-24T19:31:25.841Z,83.74
2023-04-24T19:33:52.934Z,84.44
2023-04-24T19:36:19.928Z,84.89
2023-04-24T19:38:47.602Z,85.71
2023-04-24T19:41:14.485Z,85.42
2023-04-24T19:43:41.193Z,85.98
2023-04-24T19:46:08.354Z,86.21
2023-04-24T19:48:35.144Z,87.04
2023-04-24T19:51:03.148Z,87.47
2023-04-24T19:53:30.154Z,87.53
2023-04-24T19:55:57.380Z,87.74
2023-04-24T19:58:24.600Z,87.87
2023-04-24T20:00:51.638Z,87.86
2023-04-24T20:03:31.497Z,88.02
2023-04-24T20:06:00.262Z,88.60
2023-04-24T20:08:27.185Z,89.01
2023-04-24T20:10:54.821Z,88.44
2023-04-24T20:13:21.623Z,88.98
2023-04-24T20:15:48.636Z,89.22
2023-04-24T20:18:15.533Z,90.04
2023-04-24T20:20:42.518Z,89.92
2023-04-24T20:23:09.225Z,89.96
2023-04-24T20:25:36.572Z,90.16
2023-04-24T20:28:03.589Z,89.66
2023-04-24T20:30:31.725Z,89.24
2023-04-24T20:32:59.335Z,88.71
2023-04-24T20:35:26.328Z,89.50
2023-04-24T20:37:54.004Z,89.40
2023-04-24T20:40:20.892Z,89.69
2023-04-24T20:42:47.692Z,90.20
2023-04-24T20:45:14.579Z,90.44
2023-04-24T20:47:41.494Z,89.98
2023-04-24T20:50:09.225Z,90.36
2023-04-24T20:52:36.056Z,90.62
2023-04-24T20:55:04.234Z,90.84
2023-04-24T20:57:31.350Z,89.90
2023-04-24T20:59:58.171Z,90.33
2023-04-24T21:02:25.068Z,90.83
2023-04-24T21:04:51.999Z,91.85
2023-04-24T21:07:18.891Z,91.51
2023-04-24T21:09:45.953Z,90.99
2023-04-24T21:12:12.796Z,92.11
2023-04-24T21:15:11.720Z,92.52
2023-04-24T21:17:45.314Z,92.05
2023-04-24T21:20:12.505Z,92.47
2023-04-24T21:22:39.267Z,92.40
2023-04-24T21:25:06.929Z,92.35
2023-04-24T21:27:33.781Z,92.93
2023-04-24T21:30:00.621Z,93.54
2023-04-24T21:32:27.384Z,92.95
2023-04-24T21:34:54.226Z,92.34
2023-04-24T21:37:21.122Z,92.59
2023-04-24T21:39:47.846Z,93.43
2023-04-24T21:42:14.549Z,92.89
2023-04-24T21:44:41.343Z,92.85
2023-04-24T21:47:09.304Z,93.44
2023-04-24T21:49:36.269Z,93.10
2023-04-24T21:52:03.471Z,92.96
2023-04-24T21:54:30.193Z,92.64
2023-04-24T21:56:56.990Z,92.42
2023-04-24T21:59:24.030Z,93.81
2023-04-24T22:01:50.895Z,94.40
2023-04-24T22:04:17.999Z,94.94
2023-04-24T22:06:45.111Z,94.15
2023-04-24T22:09:12.035Z,94.09
2023-04-24T22:11:39.114Z,92.97
2023-04-24T22:14:07.878Z,93.94
2023-04-24T22:16:34.742Z,94.52
2023-04-24T22:19:01.610Z,94.35
2023-04-24T22:21:28.551Z,94.63
2023-04-24T22:23:55.423Z,96.13
2023-04-24T22:26:22.668Z,94.54
2023-04-24T22:28:49.502Z,94.15
2023-04-24T22:31:16.607Z,94.33
2023-04-24T22:33:49.941Z,94.86
2023-04-24T22:36:16.952Z,95.72
2023-04-24T22:38:44.079Z,96.33
2023-04-24T22:41:11.122Z,96.41
2023-04-24T22:43:38.846Z,96.41
2023-04-24T22:46:05.759Z,96.04
2023-04-24T22:48:33.276Z,95.68
2023-04-24T22:51:00.218Z,95.07
2023-04-24T22:53:28.032Z,94.25
2023-04-24T22:55:56.626Z,95.47
2023-04-24T22:58:24.648Z,95.64
2023-04-24T23:00:51.857Z,96.37
2023-04-24T23:03:19.025Z,96.17
2023-04-24T23:05:45.987Z,95.33
2023-04-24T23:08:12.771Z,96.09
2023-04-24T23:10:39.794Z,96.42
2023-04-24T23:13:06.670Z,96.55
2023-04-24T23:15:33.436Z,96.14
2023-04-24T23:18:00.346Z,96.84
2023-04-24T23:20:27.403Z,96.60
2023-04-24T23:22:54.497Z,96.80
2023-04-24T23:25:21.418Z,97.60
2023-04-24T23:27:48.259Z,97.28
2023-04-24T23:30:15.287Z,96.69
2023-04-24T23:32:44.463Z,97.25
2023-04-24T23:35:11.917Z,97.08
2023-04-24T23:37:38.793Z,97.22
2023-04-24T23:40:07.829Z,97.89
2023-04-24T23:42:35.043Z,97.81
2023-04-24T23:45:01.781Z,97.26
2023-04-24T23:47:28.520Z,96.88
2023-04-24T23:49:55.384Z,97.33
2023-04-24T23:52:22.283Z,97.63
2023-04-24T23:54:49.155Z,98.10
2023-04-24T23:57:15.891Z,97.57
2023-04-24T23:59:42.602Z,97.10
